Time;durP1;ratioP1;P1;durP2;ratioP2;P2;SDS_P1;SDS_P2;PMS_P1;PMS_P2;Temp;Humidity;BMP_temperature;BMP_pressure;BME280_temperature;BME280_humidity;BME280_pressure;Samples;Min_cycle;Max_cycle;Signal;HPM_P1;HPM_P2
2021/09/14 00:00:38;;;;;;;8.63;5.43;;;;;;;;;;4975711;28;20030;-84
2021/09/14 00:03:04;;;;;;;7.53;4.10;;;;;;;;;;4975423;28;20406;-84
2021/09/14 00:05:31;;;;;;;7.72;5.43;;;;;;;;;;4975469;28;20023;-88
2021/09/14 00:07:57;;;;;;;7.40;5.13;;;;;;;;;;4975605;28;20038;-87
2021/09/14 00:10:24;;;;;;;9.50;5.50;;;;;;;;;;4975464;28;20033;-88
2021/09/14 00:12:50;;;;;;;7.28;4.90;;;;;;;;;;4976664;28;20026;-83
2021/09/14 00:15:16;;;;;;;6.80;3.92;;;;;;;;;;4977064;28;20023;-87
2021/09/14 00:17:42;;;;;;;7.07;5.20;;;;;;;;;;4975405;28;20086;-87
2021/09/14 00:20:09;;;;;;;8.63;5.32;;;;;;;;;;4974984;28;20042;-87
2021/09/14 00:22:36;;;;;;;8.52;4.13;;;;;;;;;;4977094;28;20029;-87
2021/09/14 00:25:02;;;;;;;7.45;5.10;;;;;;;;;;4975261;28;20062;-84
2021/09/14 00:27:28;;;;;;;8.80;5.80;;;;;;;;;;4975195;28;20037;-87
2021/09/14 00:29:54;;;;;;;6.63;3.92;;;;;;;;;;4975192;28;20439;-87
2021/09/14 00:32:21;;;;;;;7.82;5.32;;;;;;;;;;4976221;28;20030;-85
2021/09/14 00:34:47;;;;;;;10.27;5.90;;;;;;;;;;4974853;28;20066;-87
2021/09/14 00:37:13;;;;;;;6.80;4.15;;;;;;;;;;4976784;28;20383;-87
2021/09/14 00:39:40;;;;;;;8.63;5.95;;;;;;;;;;4974842;28;20035;-87
2021/09/14 00:42:06;;;;;;;8.35;4.50;;;;;;;;;;4976662;28;20026;-87
2021/09/14 00:44:32;;;;;;;7.78;5.80;;;;;;;;;;4976014;28;20058;-87
2021/09/14 00:46:59;;;;;;;8.77;5.65;;;;;;;;;;4976519;28;20030;-87
2021/09/14 00:49:25;;;;;;;9.45;4.78;;;;;;;;;;4974720;28;20027;-87
2021/09/14 00:51:52;;;;;;;7.78;5.57;;;;;;;;;;4974690;28;20082;-87
2021/09/14 00:54:18;;;;;;;7.70;5.65;;;;;;;;;;4975942;28;20037;-87
2021/09/14 00:56:45;;;;;;;9.93;4.22;;;;;;;;;;4976445;28;20027;-86
2021/09/14 00:59:11;;;;;;;12.00;6.68;;;;;;;;;;4974685;28;20066;-87
2021/09/14 01:01:38;;;;;;;10.85;6.30;;;;;;;;;;4976346;28;20097;-88
2021/09/14 01:04:05;;;;;;;6.90;4.00;;;;;;;;;;4975621;28;20566;-88
2021/09/14 01:06:32;;;;;;;8.82;5.95;;;;;;;;;;4974677;28;20562;-86
2021/09/14 01:09:01;;;;;;;9.13;6.70;;;;;;;;;;4974302;28;20039;-87
2021/09/14 01:11:30;;;;;;;9.05;6.13;;;;;;;;;;4976197;28;20061;-87
2021/09/14 01:14:01;;;;;;;7.78;5.50;;;;;;;;;;4974358;28;20035;-88
2021/09/14 01:16:29;;;;;;;8.23;5.97;;;;;;;;;;4974334;28;20078;-87
2021/09/14 01:18:56;;;;;;;9.38;3.85;;;;;;;;;;4974186;28;20121;-87
2021/09/14 01:21:22;;;;;;;9.43;6.40;;;;;;;;;;4974227;28;20033;-87
2021/09/14 01:23:48;;;;;;;5.90;4.00;;;;;;;;;;4975458;28;20031;-88
2021/09/14 01:26:15;;;;;;;8.88;6.68;;;;;;;;;;4974114;28;20026;-87
2021/09/14 01:28:41;;;;;;;8.85;5.43;;;;;;;;;;4974104;28;20027;-84
2021/09/14 01:31:07;;;;;;;9.32;6.80;;;;;;;;;;4973559;28;20022;-84
2021/09/14 01:33:33;;;;;;;9.50;5.15;;;;;;;;;;4973922;28;20034;-86
2021/09/14 01:35:59;;;;;;;10.27;5.82;;;;;;;;;;4974025;28;20023;-88
2021/09/14 01:38:25;;;;;;;8.82;5.97;;;;;;;;;;4973799;28;20030;-85
2021/09/14 01:40:53;;;;;;;8.48;4.53;;;;;;;;;;4974015;28;20031;-88
2021/09/14 01:43:20;;;;;;;9.00;6.32;;;;;;;;;;4973794;28;20050;-86
2021/09/14 01:45:46;;;;;;;8.65;6.25;;;;;;;;;;4973919;28;20030;-86
2021/09/14 01:48:12;;;;;;;10.55;6.50;;;;;;;;;;4973904;28;20027;-87
2021/09/14 01:50:39;;;;;;;8.50;6.28;;;;;;;;;;4973787;28;20435;-88
2021/09/14 01:53:06;;;;;;;9.45;5.07;;;;;;;;;;4975195;28;20108;-87
2021/09/14 01:55:32;;;;;;;10.02;5.38;;;;;;;;;;4973742;28;20080;-85
2021/09/14 01:57:59;;;;;;;9.13;6.18;;;;;;;;;;4974993;28;20042;-87
2021/09/14 02:00:29;;;;;;;9.93;7.00;;;;;;;;;;4975500;28;20097;-87
2021/09/14 02:56:43;;;;;;;9.82;5.78;;;;;;;;;;4978305;28;20562;-88
2021/09/14 02:59:01;;;;;;;8.05;5.30;;;;;;;;;;4977128;28;20188;-88
2021/09/14 03:01:27;;;;;;;11.43;6.32;;;;;;;;;;4976962;28;20073;-88
2021/09/14 03:03:56;;;;;;;10.00;5.97;;;;;;;;;;4977833;28;20397;-87
2021/09/14 03:06:24;;;;;;;8.30;5.03;;;;;;;;;;4976827;28;20030;-87
2021/09/14 03:08:50;;;;;;;9.43;6.35;;;;;;;;;;4976877;28;20027;-87
2021/09/14 03:11:20;;;;;;;12.02;7.50;;;;;;;;;;4976718;28;20034;-87
2021/09/14 03:13:46;;;;;;;10.60;6.78;;;;;;;;;;4976675;28;20125;-88
2021/09/14 03:16:13;;;;;;;10.48;5.05;;;;;;;;;;4977959;28;20033;-87
2021/09/14 03:18:40;;;;;;;11.75;6.25;;;;;;;;;;4976548;28;20045;-88
2021/09/14 03:21:07;;;;;;;11.45;7.22;;;;;;;;;;4978237;28;20443;-86
2021/09/14 03:23:33;;;;;;;10.10;6.03;;;;;;;;;;4976368;28;20023;-85
2021/09/14 03:26:00;;;;;;;13.05;8.68;;;;;;;;;;4976264;28;20035;-88
2021/09/14 03:28:26;;;;;;;12.13;7.20;;;;;;;;;;4976567;28;20037;-86
2021/09/14 03:30:53;;;;;;;12.82;8.25;;;;;;;;;;4976212;28;20019;-87
2021/09/14 03:33:19;;;;;;;15.32;9.00;;;;;;;;;;4976172;28;20031;-85
2021/09/14 03:35:45;;;;;;;9.98;6.13;;;;;;;;;;4976138;28;20396;-86
2021/09/14 03:38:12;;;;;;;13.82;9.30;;;;;;;;;;4976101;28;20467;-88
2021/09/14 03:40:39;;;;;;;10.43;6.55;;;;;;;;;;4976170;28;20511;-88
2021/09/14 03:43:06;;;;;;;12.93;8.30;;;;;;;;;;4976110;28;20023;-88
2021/09/14 03:45:32;;;;;;;11.63;8.13;;;;;;;;;;4977226;28;20034;-86
2021/09/14 03:47:59;;;;;;;14.02;8.68;;;;;;;;;;4976052;28;20027;-88
2021/09/14 03:50:25;;;;;;;11.25;6.63;;;;;;;;;;4977208;28;20112;-87
2021/09/14 03:52:51;;;;;;;10.13;6.60;;;;;;;;;;4975990;28;20027;-87
2021/09/14 03:55:18;;;;;;;15.63;9.35;;;;;;;;;;4975450;28;20043;-88
2021/09/14 03:57:44;;;;;;;11.45;7.78;;;;;;;;;;4975784;28;20040;-88
2021/09/14 04:00:11;;;;;;;12.55;7.25;;;;;;;;;;4975838;28;20042;-88
2021/09/14 04:02:44;;;;;;;15.10;8.63;;;;;;;;;;4977080;28;20045;-88
2021/09/14 04:05:29;;;;;;;12.97;7.13;;;;;;;;;;4975641;28;20061;-88
2021/09/14 04:10:28;;;;;;;11.52;7.15;;;;;;;;;;4977001;28;20130;-88
2021/09/14 04:12:54;;;;;;;12.90;8.85;;;;;;;;;;4976979;28;20031;-87
2021/09/14 04:15:21;;;;;;;8.45;5.85;;;;;;;;;;4975606;28;20538;-88
2021/09/14 04:17:47;;;;;;;14.00;9.13;;;;;;;;;;4975458;28;20085;-88
2021/09/14 04:20:13;;;;;;;10.02;6.57;;;;;;;;;;4975385;28;20035;-87
2021/09/14 04:22:40;;;;;;;12.50;7.82;;;;;;;;;;4977052;28;20026;-88
2021/09/14 04:25:06;;;;;;;13.73;6.85;;;;;;;;;;4975330;28;20027;-88
2021/09/14 04:27:33;;;;;;;13.70;9.05;;;;;;;;;;4975264;28;20031;-87
2021/09/14 04:29:59;;;;;;;16.13;8.35;;;;;;;;;;4975252;28;20031;-87
2021/09/14 04:32:25;;;;;;;12.77;7.70;;;;;;;;;;4975141;28;20030;-85
2021/09/14 04:34:51;;;;;;;18.38;9.05;;;;;;;;;;4977291;28;20027;-85
2021/09/14 04:37:17;;;;;;;12.63;7.75;;;;;;;;;;4975852;28;20496;-85
2021/09/14 04:39:44;;;;;;;18.17;9.25;;;;;;;;;;4976742;28;20038;-86
2021/09/14 04:42:10;;;;;;;15.15;9.10;;;;;;;;;;4974759;28;20027;-85
2021/09/14 04:44:36;;;;;;;13.38;7.97;;;;;;;;;;4975876;28;20067;-86
2021/09/14 04:47:02;;;;;;;12.40;7.68;;;;;;;;;;4974553;28;20050;-84
2021/09/14 04:49:29;;;;;;;11.82;6.28;;;;;;;;;;4974534;28;20468;-86
2021/09/14 04:51:55;;;;;;;15.63;7.78;;;;;;;;;;4976239;28;20018;-86
2021/09/14 04:54:21;;;;;;;9.70;7.15;;;;;;;;;;4974457;28;20031;-87
2021/09/14 04:56:47;;;;;;;9.55;7.32;;;;;;;;;;4974413;28;20133;-86
2021/09/14 04:59:14;;;;;;;9.90;7.38;;;;;;;;;;4974359;28;20049;-85
2021/09/14 05:01:41;;;;;;;12.00;7.68;;;;;;;;;;4974184;28;20499;-85
2021/09/14 05:04:08;;;;;;;12.18;7.80;;;;;;;;;;4974231;28;20407;-80
2021/09/14 05:06:34;;;;;;;13.05;6.88;;;;;;;;;;4973848;28;20042;-81
2021/09/14 05:09:00;;;;;;;12.65;7.15;;;;;;;;;;4974334;28;20026;-81
2021/09/14 05:11:26;;;;;;;13.70;7.03;;;;;;;;;;4975763;28;20033;-81
2021/09/14 05:13:52;;;;;;;9.68;6.68;;;;;;;;;;4974067;28;20031;-81
2021/09/14 05:16:18;;;;;;;11.18;7.10;;;;;;;;;;4973952;28;20054;-81
2021/09/14 05:18:46;;;;;;;10.18;6.70;;;;;;;;;;4973849;28;20098;-80
2021/09/14 05:21:12;;;;;;;13.88;6.43;;;;;;;;;;4974120;28;20451;-81
2021/09/14 05:23:38;;;;;;;11.15;6.50;;;;;;;;;;4974373;28;20026;-81
2021/09/14 05:26:04;;;;;;;35.55;8.88;;;;;;;;;;4975089;28;20031;-81
2021/09/14 05:28:37;;;;;;;31.38;8.80;;;;;;;;;;4973974;28;20114;-82
2021/09/14 05:31:05;;;;;;;11.43;7.03;;;;;;;;;;4975078;28;20026;-82
2021/09/14 05:33:32;;;;;;;11.05;6.80;;;;;;;;;;4975281;28;20034;-79
2021/09/14 05:35:58;;;;;;;11.73;6.40;;;;;;;;;;4974929;28;20027;-79
2021/09/14 05:38:25;;;;;;;13.57;6.80;;;;;;;;;;4973578;28;20031;-80
2021/09/14 05:40:53;;;;;;;12.05;6.45;;;;;;;;;;4973553;28;20222;-79
2021/09/14 05:43:20;;;;;;;10.88;6.85;;;;;;;;;;4973568;28;20057;-79
2021/09/14 05:45:46;;;;;;;12.18;6.38;;;;;;;;;;4974855;28;20058;-80
2021/09/14 05:48:12;;;;;;;11.73;6.72;;;;;;;;;;4973637;28;20027;-80
2021/09/14 05:50:39;;;;;;;12.43;6.82;;;;;;;;;;4973458;28;20054;-79
2021/09/14 05:53:05;;;;;;;12.13;6.75;;;;;;;;;;4973522;28;20027;-80
2021/09/14 05:55:31;;;;;;;14.02;6.88;;;;;;;;;;4975090;28;20031;-80
2021/09/14 05:57:57;;;;;;;15.23;7.63;;;;;;;;;;4973431;28;20101;-79
2021/09/14 06:00:23;;;;;;;13.50;7.40;;;;;;;;;;4973229;28;20039;-79
2021/09/14 06:02:50;;;;;;;12.07;6.72;;;;;;;;;;4973063;28;20055;-80
2021/09/14 06:05:16;;;;;;;10.38;6.35;;;;;;;;;;4973342;28;20041;-79
2021/09/14 06:07:42;;;;;;;9.88;5.53;;;;;;;;;;4973308;28;20031;-79
2021/09/14 06:10:08;;;;;;;8.57;5.28;;;;;;;;;;4973228;28;20480;-80
2021/09/14 06:12:34;;;;;;;7.85;4.13;;;;;;;;;;4973268;28;20119;-79
2021/09/14 06:15:01;;;;;;;12.90;5.25;;;;;;;;;;4974482;28;20491;-79
2021/09/14 06:17:27;;;;;;;7.55;3.78;;;;;;;;;;4974994;28;20027;-80
2021/09/14 06:19:53;;;;;;;9.25;4.00;;;;;;;;;;4978499;28;20459;-80
2021/09/14 06:22:20;;;;;;;8.15;4.03;;;;;;;;;;4977241;28;20031;-79
2021/09/14 06:24:49;;;;;;;11.80;4.28;;;;;;;;;;4977114;28;20034;-80
2021/09/14 06:27:16;;;;;;;10.13;4.40;;;;;;;;;;4977069;28;20038;-80
2021/09/14 06:29:42;;;;;;;11.73;4.70;;;;;;;;;;4976918;28;20035;-80
2021/09/14 06:32:09;;;;;;;9.27;4.53;;;;;;;;;;4977065;28;20031;-80
2021/09/14 06:34:35;;;;;;;8.45;4.25;;;;;;;;;;4976951;28;20019;-80
2021/09/14 06:37:02;;;;;;;7.15;4.60;;;;;;;;;;4976962;28;20454;-80
2021/09/14 06:39:28;;;;;;;7.97;4.95;;;;;;;;;;4976770;28;20038;-80
2021/09/14 06:41:54;;;;;;;8.63;4.50;;;;;;;;;;4976798;28;20022;-80
2021/09/14 06:44:20;;;;;;;7.40;4.53;;;;;;;;;;4976800;28;20026;-79
2021/09/14 06:46:46;;;;;;;8.80;5.05;;;;;;;;;;4977979;28;20018;-81
2021/09/14 06:49:12;;;;;;;7.38;4.45;;;;;;;;;;4976738;28;20027;-81
2021/09/14 06:51:38;;;;;;;9.60;4.93;;;;;;;;;;4976664;28;20460;-80
2021/09/14 06:54:05;;;;;;;9.23;4.57;;;;;;;;;;4976663;28;20031;-81
2021/09/14 06:56:31;;;;;;;7.35;4.57;;;;;;;;;;4976591;28;20038;-80
2021/09/14 06:58:57;;;;;;;10.43;5.05;;;;;;;;;;4976319;28;20491;-80
2021/09/14 07:01:23;;;;;;;8.30;4.90;;;;;;;;;;4977759;28;20078;-80
2021/09/14 07:03:50;;;;;;;7.03;4.82;;;;;;;;;;4976481;28;20059;-80
2021/09/14 07:06:16;;;;;;;9.93;5.03;;;;;;;;;;4976771;28;20553;-81
2021/09/14 07:08:42;;;;;;;8.15;5.13;;;;;;;;;;4976378;28;20484;-80
2021/09/14 07:11:08;;;;;;;8.13;4.80;;;;;;;;;;4976984;28;20121;-80
2021/09/14 07:13:34;;;;;;;7.03;4.70;;;;;;;;;;4976108;28;20039;-82
2021/09/14 07:16:01;;;;;;;6.60;4.85;;;;;;;;;;4976360;28;20023;-83
2021/09/14 07:18:27;;;;;;;7.70;4.68;;;;;;;;;;4977792;28;20027;-85
2021/09/14 07:20:53;;;;;;;8.45;4.78;;;;;;;;;;4976533;28;20491;-84
2021/09/14 07:23:21;;;;;;;6.72;4.40;;;;;;;;;;4977688;28;20054;-83
2021/09/14 07:25:47;;;;;;;9.52;4.78;;;;;;;;;;4977525;28;20480;-84
2021/09/14 07:28:14;;;;;;;5.68;4.47;;;;;;;;;;4976875;28;20031;-84
2021/09/14 07:30:40;;;;;;;8.95;4.55;;;;;;;;;;4975811;28;20029;-83
2021/09/14 07:33:07;;;;;;;6.65;4.57;;;;;;;;;;4976125;28;20031;-84
2021/09/14 07:35:33;;;;;;;6.43;4.35;;;;;;;;;;4976074;28;20031;-83
2021/09/14 07:38:00;;;;;;;6.60;5.07;;;;;;;;;;4975981;28;20030;-84
2021/09/14 07:40:26;;;;;;;11.93;5.20;;;;;;;;;;4977238;28;20554;-84
2021/09/14 07:42:57;;;;;;;5.70;4.40;;;;;;;;;;4977224;28;20069;-84
2021/09/14 07:45:23;;;;;;;6.60;4.75;;;;;;;;;;4976000;28;20041;-85
2021/09/14 07:47:49;;;;;;;7.07;4.32;;;;;;;;;;4977300;28;20033;-83
2021/09/14 07:50:16;;;;;;;5.82;4.18;;;;;;;;;;4976208;28;20373;-84
2021/09/14 07:52:42;;;;;;;6.97;4.18;;;;;;;;;;4977522;28;20034;-85
2021/09/14 07:55:09;;;;;;;5.15;4.35;;;;;;;;;;4977539;28;20027;-85
2021/09/14 07:57:35;;;;;;;6.72;4.38;;;;;;;;;;4976891;28;20471;-85
2021/09/14 08:00:02;;;;;;;5.75;4.50;;;;;;;;;;4976848;28;20034;-84
2021/09/14 08:02:28;;;;;;;6.40;4.07;;;;;;;;;;4976657;28;20051;-84
2021/09/14 08:04:55;;;;;;;5.80;4.00;;;;;;;;;;4976830;28;20039;-85
2021/09/14 08:07:21;;;;;;;6.00;4.03;;;;;;;;;;4976780;28;20031;-84
2021/09/14 08:09:47;;;;;;;9.40;3.83;;;;;;;;;;4976701;28;20035;-85
2021/09/14 08:12:14;;;;;;;5.90;4.07;;;;;;;;;;4976762;28;20026;-85
2021/09/14 08:14:41;;;;;;;7.07;4.30;;;;;;;;;;4977240;28;20034;-84
2021/09/14 08:17:08;;;;;;;5.45;3.92;;;;;;;;;;4976632;28;20025;-84
2021/09/14 08:19:34;;;;;;;8.65;3.67;;;;;;;;;;4977034;28;20121;-85
2021/09/14 08:22:01;;;;;;;6.38;3.90;;;;;;;;;;4976401;28;20503;-84
2021/09/14 08:24:28;;;;;;;4.93;3.90;;;;;;;;;;4976832;28;20058;-85
2021/09/14 08:26:54;;;;;;;7.80;3.70;;;;;;;;;;4976326;28;20069;-85
2021/09/14 08:29:20;;;;;;;7.35;4.18;;;;;;;;;;4976879;28;20054;-84
2021/09/14 08:31:47;;;;;;;6.50;4.00;;;;;;;;;;4976315;28;20031;-84
2021/09/14 08:34:13;;;;;;;5.20;3.90;;;;;;;;;;4976903;28;20027;-84
2021/09/14 08:36:42;;;;;;;7.15;4.25;;;;;;;;;;4976386;28;20038;-81
2021/09/14 08:39:08;;;;;;;6.55;3.97;;;;;;;;;;4976816;28;20039;-83
2021/09/14 08:41:34;;;;;;;8.63;4.10;;;;;;;;;;4974784;28;20386;-83
2021/09/14 08:44:01;;;;;;;7.15;4.13;;;;;;;;;;4974700;28;20547;-84
2021/09/14 08:46:28;;;;;;;7.72;4.03;;;;;;;;;;4975872;28;20030;-84
2021/09/14 08:48:54;;;;;;;8.48;3.97;;;;;;;;;;4974665;28;20416;-84
2021/09/14 08:51:20;;;;;;;5.05;3.70;;;;;;;;;;4976339;28;20023;-83
2021/09/14 08:53:47;;;;;;;7.68;4.28;;;;;;;;;;4975715;28;20058;-84
2021/09/14 08:56:13;;;;;;;6.53;4.03;;;;;;;;;;4975731;28;20038;-85
2021/09/14 08:58:40;;;;;;;11.50;3.65;;;;;;;;;;4975544;28;20038;-84
2021/09/14 09:01:10;;;;;;;5.78;3.65;;;;;;;;;;4975548;28;20428;-84
2021/09/14 09:03:38;;;;;;;7.72;3.70;;;;;;;;;;4975520;28;20046;-82
2021/09/14 09:06:05;;;;;;;5.22;3.67;;;;;;;;;;4974206;28;20026;-84
2021/09/14 09:08:31;;;;;;;6.75;3.53;;;;;;;;;;4974251;28;20038;-83
2021/09/14 09:11:01;;;;;;;6.28;3.28;;;;;;;;;;4974154;28;20387;-83
2021/09/14 09:13:29;;;;;;;7.63;3.50;;;;;;;;;;4974530;28;20023;-84
2021/09/14 09:15:56;;;;;;;4.55;3.40;;;;;;;;;;4974122;28;20034;-85
2021/09/14 09:18:22;;;;;;;6.28;3.90;;;;;;;;;;4973971;28;20033;-84
2021/09/14 09:20:49;;;;;;;5.72;3.20;;;;;;;;;;4975323;28;20031;-85
2021/09/14 09:23:25;;;;;;;4.95;3.05;;;;;;;;;;4973970;28;20077;-84
2021/09/14 09:25:52;;;;;;;4.88;3.70;;;;;;;;;;4974831;28;20031;-84
2021/09/14 09:28:24;;;;;;;4.95;3.35;;;;;;;;;;4975677;28;20074;-85
2021/09/14 09:30:59;;;;;;;4.50;3.35;;;;;;;;;;4973892;28;20550;-84
2021/09/14 09:33:27;;;;;;;4.55;3.60;;;;;;;;;;4975622;28;20059;-84
2021/09/14 09:36:00;;;;;;;4.97;3.28;;;;;;;;;;4973805;28;20022;-85
2021/09/14 09:38:27;;;;;;;4.68;3.40;;;;;;;;;;4975410;28;20022;-84
2021/09/14 09:40:53;;;;;;;6.30;3.35;;;;;;;;;;4975476;28;20097;-84
2021/09/14 09:43:27;;;;;;;5.55;3.30;;;;;;;;;;4974907;28;20042;-85
2021/09/14 09:45:53;;;;;;;5.60;3.00;;;;;;;;;;4973672;28;20079;-84
2021/09/14 09:48:20;;;;;;;5.85;3.13;;;;;;;;;;4974908;28;20443;-84
2021/09/14 09:50:46;;;;;;;4.43;3.00;;;;;;;;;;4975362;28;20105;-85
2021/09/14 09:53:13;;;;;;;4.38;3.30;;;;;;;;;;4974393;28;20034;-84
2021/09/14 09:55:39;;;;;;;5.25;3.05;;;;;;;;;;4974799;28;20098;-85
2021/09/14 09:58:06;;;;;;;7.60;3.20;;;;;;;;;;4973484;28;20035;-85
2021/09/14 10:00:34;;;;;;;4.30;2.95;;;;;;;;;;4974638;28;20042;-84
2021/09/14 10:03:03;;;;;;;5.47;3.10;;;;;;;;;;4974738;28;20126;-85
2021/09/14 10:05:39;;;;;;;5.28;3.00;;;;;;;;;;4974685;28;20030;-84
2021/09/14 10:08:09;;;;;;;4.07;3.10;;;;;;;;;;4975241;28;20054;-85
2021/09/14 10:10:36;;;;;;;5.57;2.67;;;;;;;;;;4973396;28;20023;-84
2021/09/14 10:13:05;;;;;;;3.22;2.30;;;;;;;;;;4974562;28;20031;-84
2021/09/14 10:15:39;;;;;;;4.55;2.80;;;;;;;;;;4973345;28;20023;-84
2021/09/14 10:18:06;;;;;;;3.70;2.40;;;;;;;;;;4973294;28;20052;-85
2021/09/14 10:20:39;;;;;;;6.38;2.92;;;;;;;;;;4974472;28;20110;-84
2021/09/14 10:23:07;;;;;;;4.55;2.47;;;;;;;;;;4973207;28;20539;-84
2021/09/14 10:25:35;;;;;;;5.72;2.25;;;;;;;;;;4974466;28;20066;-85
2021/09/14 10:28:11;;;;;;;4.28;2.33;;;;;;;;;;4973128;28;20038;-84
2021/09/14 10:30:38;;;;;;;4.05;2.45;;;;;;;;;;4973250;28;20027;-84
2021/09/14 10:33:05;;;;;;;4.25;2.35;;;;;;;;;;4975038;28;20019;-84
2021/09/14 10:35:34;;;;;;;4.70;2.78;;;;;;;;;;4974522;28;20023;-84
2021/09/14 10:38:04;;;;;;;3.75;2.47;;;;;;;;;;4974935;28;20027;-84
2021/09/14 10:40:37;;;;;;;4.85;2.60;;;;;;;;;;4974827;28;20039;-84
2021/09/14 10:43:03;;;;;;;4.38;2.53;;;;;;;;;;4973099;28;20026;-84
2021/09/14 10:45:39;;;;;;;5.35;2.63;;;;;;;;;;4974465;28;20031;-83
2021/09/14 10:48:06;;;;;;;4.03;2.80;;;;;;;;;;4973176;28;20034;-84
2021/09/14 10:50:32;;;;;;;5.32;3.13;;;;;;;;;;4974991;28;20026;-83
2021/09/14 10:53:00;;;;;;;5.10;2.67;;;;;;;;;;4974414;28;20110;-84
2021/09/14 10:55:26;;;;;;;5.90;2.90;;;;;;;;;;4973012;28;20038;-85
2021/09/14 10:57:58;;;;;;;5.78;2.92;;;;;;;;;;4974322;28;20031;-84
2021/09/14 11:00:29;;;;;;;5.03;2.90;;;;;;;;;;4972997;28;20035;-84
2021/09/14 11:02:56;;;;;;;3.87;2.50;;;;;;;;;;4973937;28;20046;-84
2021/09/14 11:05:26;;;;;;;4.82;3.38;;;;;;;;;;4977579;28;20531;-84
2021/09/14 11:07:57;;;;;;;4.55;2.53;;;;;;;;;;4976508;28;20435;-83
2021/09/14 11:10:24;;;;;;;6.88;2.80;;;;;;;;;;4976599;28;20118;-84
2021/09/14 11:12:51;;;;;;;5.38;2.60;;;;;;;;;;4978014;28;20485;-84
2021/09/14 11:15:17;;;;;;;7.32;2.38;;;;;;;;;;4977591;28;20037;-84
2021/09/14 11:17:48;;;;;;;8.82;2.65;;;;;;;;;;4976436;28;20045;-83
2021/09/14 11:20:18;;;;;;;5.63;3.00;;;;;;;;;;4976335;28;20518;-84
2021/09/14 11:22:45;;;;;;;3.55;2.85;;;;;;;;;;4976347;28;20027;-84
2021/09/14 11:25:18;;;;;;;5.07;2.90;;;;;;;;;;4977884;28;20031;-83
2021/09/14 11:27:58;;;;;;;5.13;2.60;;;;;;;;;;4976349;28;20062;-83
2021/09/14 11:30:25;;;;;;;6.00;2.78;;;;;;;;;;4976146;28;20030;-84
2021/09/14 11:32:52;;;;;;;5.97;2.55;;;;;;;;;;4977929;28;20415;-83
2021/09/14 11:35:19;;;;;;;3.72;2.33;;;;;;;;;;4976121;28;20049;-83
2021/09/14 11:37:56;;;;;;;4.40;2.58;;;;;;;;;;4977974;28;20037;-83
2021/09/14 11:40:22;;;;;;;6.25;2.10;;;;;;;;;;4975970;28;20042;-84
2021/09/14 11:42:52;;;;;;;3.83;2.28;;;;;;;;;;4977648;28;20490;-84
2021/09/14 11:45:21;;;;;;;7.15;2.50;;;;;;;;;;4975918;28;20081;-84
2021/09/14 11:47:47;;;;;;;4.82;2.45;;;;;;;;;;4975806;28;20125;-84
2021/09/14 11:50:23;;;;;;;8.20;2.47;;;;;;;;;;4977704;28;20053;-84
2021/09/14 11:52:49;;;;;;;3.60;2.25;;;;;;;;;;4977511;28;20359;-83
2021/09/14 11:55:15;;;;;;;3.90;2.70;;;;;;;;;;4977003;28;20031;-83
2021/09/14 11:57:42;;;;;;;4.38;2.38;;;;;;;;;;4976829;28;20026;-82
2021/09/14 12:00:12;;;;;;;5.18;2.35;;;;;;;;;;4976746;28;20058;-82
2021/09/14 12:02:49;;;;;;;4.18;2.10;;;;;;;;;;4975238;28;20407;-81
2021/09/14 12:05:19;;;;;;;4.07;2.20;;;;;;;;;;4975481;28;20515;-81
2021/09/14 12:07:55;;;;;;;3.90;2.10;;;;;;;;;;4975400;28;20451;-83
2021/09/14 12:10:21;;;;;;;3.25;2.25;;;;;;;;;;4975439;28;20038;-82
2021/09/14 12:12:51;;;;;;;4.22;2.58;;;;;;;;;;4975261;28;20109;-83
2021/09/14 12:15:18;;;;;;;4.22;2.30;;;;;;;;;;4974821;28;20037;-83
2021/09/14 12:17:45;;;;;;;7.38;2.33;;;;;;;;;;4975253;28;20061;-83
2021/09/14 12:20:12;;;;;;;6.55;2.30;;;;;;;;;;4975174;28;20384;-84
2021/09/14 12:22:38;;;;;;;4.32;1.83;;;;;;;;;;4976516;28;20465;-83
2021/09/14 12:25:05;;;;;;;7.90;2.53;;;;;;;;;;4976908;28;20034;-85
2021/09/14 12:27:31;;;;;;;4.90;2.10;;;;;;;;;;4976273;28;20081;-83
2021/09/14 12:29:58;;;;;;;4.03;2.30;;;;;;;;;;4975023;28;20031;-84
2021/09/14 12:32:24;;;;;;;5.90;2.47;;;;;;;;;;4975649;28;20066;-81
2021/09/14 12:34:50;;;;;;;4.15;2.28;;;;;;;;;;4975159;28;20558;-81
2021/09/14 12:37:16;;;;;;;3.30;2.20;;;;;;;;;;4975056;28;20014;-80
2021/09/14 12:39:43;;;;;;;3.80;2.47;;;;;;;;;;4974899;28;20065;-81
2021/09/14 12:42:09;;;;;;;5.10;3.08;;;;;;;;;;4975342;28;20058;-81
2021/09/14 12:44:35;;;;;;;4.03;2.65;;;;;;;;;;4976346;28;20034;-80
2021/09/14 12:47:02;;;;;;;9.68;2.70;;;;;;;;;;4976114;28;20119;-82
2021/09/14 12:49:28;;;;;;;4.95;2.42;;;;;;;;;;4973540;28;20037;-81
2021/09/14 12:51:54;;;;;;;7.50;2.50;;;;;;;;;;4975411;28;20062;-84
2021/09/14 12:54:20;;;;;;;4.15;2.40;;;;;;;;;;4974528;28;20089;-84
2021/09/14 12:56:50;;;;;;;8.30;3.10;;;;;;;;;;4974497;28;20030;-84
2021/09/14 12:59:16;;;;;;;6.45;2.75;;;;;;;;;;4975661;28;20042;-83
2021/09/14 13:01:42;;;;;;;5.45;2.78;;;;;;;;;;4974414;28;20066;-83
2021/09/14 13:04:08;;;;;;;3.45;2.47;;;;;;;;;;4974140;28;20174;-83
2021/09/14 13:06:34;;;;;;;6.72;2.20;;;;;;;;;;4974498;28;20027;-85
2021/09/14 13:09:01;;;;;;;7.07;2.75;;;;;;;;;;4976080;28;20114;-85
2021/09/14 13:11:27;;;;;;;5.40;2.45;;;;;;;;;;4976051;28;20037;-85
2021/09/14 13:16:38;;;;;;;5.70;2.30;;;;;;;;;;4976023;28;20115;-85
2021/09/14 13:19:05;;;;;;;6.93;2.72;;;;;;;;;;4975803;28;20420;-85
2021/09/14 13:21:32;;;;;;;6.63;2.63;;;;;;;;;;4975885;28;20102;-83
2021/09/14 13:23:58;;;;;;;5.28;2.50;;;;;;;;;;4973976;28;20480;-84
2021/09/14 13:26:25;;;;;;;4.70;2.42;;;;;;;;;;4973304;28;20031;-84
2021/09/14 13:28:51;;;;;;;6.22;3.20;;;;;;;;;;4973926;28;20031;-84
2021/09/14 13:31:17;;;;;;;6.53;3.10;;;;;;;;;;4973970;28;20022;-84
2021/09/14 13:33:44;;;;;;;5.18;2.22;;;;;;;;;;4973871;28;20034;-84
2021/09/14 13:36:11;;;;;;;5.75;2.90;;;;;;;;;;4973785;28;20026;-84
2021/09/14 13:38:37;;;;;;;5.32;2.25;;;;;;;;;;4974966;28;20034;-85
2021/09/14 13:41:06;;;;;;;10.95;2.40;;;;;;;;;;4975634;28;20065;-84
2021/09/14 13:43:50;;;;;;;4.05;2.60;;;;;;;;;;4975547;28;20015;-83
2021/09/14 13:46:16;;;;;;;4.35;2.58;;;;;;;;;;4973770;28;20033;-84
2021/09/14 13:48:50;;;;;;;6.88;2.65;;;;;;;;;;4973754;28;20034;-83
2021/09/14 13:51:17;;;;;;;7.55;4.05;;;;;;;;;;4973558;28;20031;-84
2021/09/14 13:53:44;;;;;;;6.60;3.58;;;;;;;;;;4973421;28;20059;-85
2021/09/14 13:56:16;;;;;;;7.05;3.10;;;;;;;;;;4973550;28;20031;-85
2021/09/14 13:58:42;;;;;;;4.47;3.33;;;;;;;;;;4973353;28;20581;-84
2021/09/14 14:01:08;;;;;;;4.93;3.03;;;;;;;;;;4974845;28;20030;-84
2021/09/14 14:03:35;;;;;;;5.80;3.28;;;;;;;;;;4974702;28;20138;-82
2021/09/14 14:06:01;;;;;;;5.05;2.75;;;;;;;;;;4974773;28;20165;-83
2021/09/14 14:08:27;;;;;;;6.47;3.60;;;;;;;;;;4973389;28;20512;-84
2021/09/14 14:10:54;;;;;;;4.38;3.15;;;;;;;;;;4974541;28;20038;-86
2021/09/14 14:13:20;;;;;;;7.72;3.00;;;;;;;;;;4975241;28;20126;-83
2021/09/14 14:15:46;;;;;;;6.18;2.95;;;;;;;;;;4973488;28;20035;-83
2021/09/14 14:18:13;;;;;;;5.28;3.25;;;;;;;;;;4974758;28;20023;-85
2021/09/14 14:20:39;;;;;;;6.30;3.25;;;;;;;;;;4976386;28;20085;-87
2021/09/14 14:23:06;;;;;;;4.60;3.10;;;;;;;;;;4975460;28;20062;-84
2021/09/14 14:25:32;;;;;;;9.68;3.38;;;;;;;;;;4972814;28;20103;-83
2021/09/14 14:27:59;;;;;;;5.50;3.25;;;;;;;;;;4972732;28;20027;-81
2021/09/14 14:30:25;;;;;;;5.28;3.20;;;;;;;;;;4977482;28;20431;-81
2021/09/14 14:32:53;;;;;;;4.50;2.72;;;;;;;;;;4973054;28;20027;-81
2021/09/14 14:35:21;;;;;;;4.32;3.08;;;;;;;;;;4974201;28;20097;-81
2021/09/14 14:37:47;;;;;;;5.03;2.80;;;;;;;;;;4973686;28;20037;-81
2021/09/14 14:40:14;;;;;;;6.38;3.20;;;;;;;;;;4978325;28;20077;-82
2021/09/14 14:42:40;;;;;;;8.30;3.00;;;;;;;;;;4977067;28;20026;-82
2021/09/14 14:45:11;;;;;;;6.70;2.80;;;;;;;;;;4977068;28;20038;-84
2021/09/14 14:47:37;;;;;;;5.07;2.58;;;;;;;;;;4977085;28;20480;-84
2021/09/14 14:50:04;;;;;;;5.15;2.80;;;;;;;;;;4976805;28;20065;-84
2021/09/14 14:52:30;;;;;;;5.03;2.70;;;;;;;;;;4976278;28;20027;-85
2021/09/14 14:54:58;;;;;;;7.35;2.80;;;;;;;;;;4977890;28;20031;-85
2021/09/14 14:57:24;;;;;;;4.43;2.92;;;;;;;;;;4977349;28;20023;-84
2021/09/14 14:59:51;;;;;;;4.85;2.63;;;;;;;;;;4976549;28;20062;-83
2021/09/14 15:02:17;;;;;;;3.75;2.10;;;;;;;;;;4976422;28;20046;-79
2021/09/14 15:04:43;;;;;;;3.67;2.35;;;;;;;;;;4977779;28;20030;-83
2021/09/14 15:07:09;;;;;;;6.18;2.60;;;;;;;;;;4976482;28;20019;-81
2021/09/14 15:09:35;;;;;;;7.45;3.17;;;;;;;;;;4976454;28;20027;-81
2021/09/14 15:12:01;;;;;;;4.68;3.10;;;;;;;;;;4976379;28;20114;-84
2021/09/14 15:14:27;;;;;;;7.72;3.17;;;;;;;;;;4976443;28;20042;-81
2021/09/14 15:16:53;;;;;;;6.90;2.80;;;;;;;;;;4977585;28;20080;-81
2021/09/14 15:19:20;;;;;;;4.50;3.17;;;;;;;;;;4976116;28;20042;-82
2021/09/14 15:21:46;;;;;;;7.00;2.95;;;;;;;;;;4976200;28;20113;-83
2021/09/14 15:24:12;;;;;;;6.43;3.00;;;;;;;;;;4976163;28;20035;-81
2021/09/14 15:26:39;;;;;;;7.75;2.97;;;;;;;;;;4976134;28;20022;-84
2021/09/14 15:29:05;;;;;;;5.85;3.17;;;;;;;;;;4976397;28;20035;-83
2021/09/14 15:31:31;;;;;;;5.32;3.15;;;;;;;;;;4976047;28;20030;-79
2021/09/14 15:33:58;;;;;;;6.50;2.97;;;;;;;;;;4976077;28;20085;-80
2021/09/14 15:36:28;;;;;;;6.43;3.25;;;;;;;;;;4975887;28;20424;-81
2021/09/14 15:38:54;;;;;;;9.70;2.90;;;;;;;;;;4975792;28;20396;-81